createdAt,value
2022-11-11T00:01:22.438Z,5.57
2022-11-11T00:06:44.075Z,8.33
2022-11-11T00:12:06.320Z,6.93
2022-11-11T00:17:46.520Z,6.37
2022-11-11T00:23:41.350Z,6.53
2022-11-11T00:29:02.906Z,7.80
2022-11-11T00:34:25.965Z,7.10
2022-11-11T00:39:47.221Z,5.90
2022-11-11T00:45:09.813Z,7.10
2022-11-11T00:50:50.103Z,5.07
2022-11-11T00:56:11.731Z,9.67
2022-11-11T01:01:33.303Z,4.63
2022-11-11T01:06:56.258Z,5.97
2022-11-11T01:12:18.081Z,4.63
2022-11-11T01:17:39.326Z,4.60
2022-11-11T01:23:02.106Z,9.07
2022-11-11T01:28:24.370Z,4.97
2022-11-11T01:33:46.412Z,8.83
2022-11-11T01:39:10.591Z,7.40
2022-11-11T01:44:47.532Z,8.70
2022-11-11T01:50:10.285Z,5.10
2022-11-11T01:55:34.185Z,6.53
2022-11-11T02:00:55.421Z,9.23
2022-11-11T02:06:17.173Z,6.40
2022-11-11T02:12:00.473Z,10.13
2022-11-11T02:17:22.095Z,7.03
2022-11-11T02:22:55.078Z,7.50
2022-11-11T02:28:19.265Z,8.50
2022-11-11T02:33:40.827Z,7.40
2022-11-11T02:39:02.668Z,8.20
2022-11-11T02:44:25.811Z,10.67
2022-11-11T02:49:47.123Z,7.30
2022-11-11T02:55:09.598Z,9.00
2022-11-11T03:00:32.474Z,5.23
2022-11-11T03:05:53.992Z,7.07
2022-11-11T03:11:15.544Z,4.50
2022-11-11T03:16:56.071Z,5.00
2022-11-11T03:27:59.059Z,7.57
2022-11-11T03:33:21.983Z,3.70
2022-11-11T03:38:43.424Z,5.53
2022-11-11T03:44:04.799Z,3.03
2022-11-11T03:49:27.439Z,7.53
2022-11-11T03:54:48.703Z,5.93
2022-11-11T04:00:14.624Z,4.97
2022-11-11T04:05:55.267Z,4.47
2022-11-11T04:11:28.158Z,3.40
2022-11-11T04:16:49.638Z,5.10
2022-11-11T04:22:12.437Z,4.63
2022-11-11T04:27:33.906Z,5.53
2022-11-11T04:32:55.037Z,2.80
2022-11-11T04:38:35.440Z,5.50
2022-11-11T04:44:14.259Z,2.67
2022-11-11T04:49:36.121Z,4.83
2022-11-11T04:55:21.569Z,4.83
2022-11-11T05:00:43.574Z,3.97
2022-11-11T05:06:23.054Z,4.27
2022-11-11T05:11:45.851Z,4.03
2022-11-11T05:17:25.042Z,7.50
2022-11-11T05:22:46.615Z,4.67
2022-11-11T05:28:09.218Z,4.90
2022-11-11T05:33:30.555Z,2.97
2022-11-11T05:38:51.875Z,5.27
2022-11-11T05:44:14.427Z,6.03
2022-11-11T05:49:35.873Z,3.47
2022-11-11T05:54:57.335Z,7.00
2022-11-11T06:00:20.635Z,3.10
2022-11-11T06:05:42.165Z,4.53
2022-11-11T06:11:03.489Z,5.80
2022-11-11T06:16:26.246Z,2.63
2022-11-11T06:22:00.971Z,2.80
2022-11-11T06:27:22.799Z,2.20
2022-11-11T06:32:45.267Z,1.17
2022-11-11T06:38:08.267Z,3.43
2022-11-11T06:43:30.390Z,3.63
2022-11-11T06:48:53.026Z,3.50
2022-11-11T06:54:15.181Z,6.40
2022-11-11T06:59:36.579Z,3.60
2022-11-11T07:04:59.455Z,2.43
2022-11-11T07:10:21.247Z,3.43
2022-11-11T07:15:43.211Z,3.90
2022-11-11T07:21:06.374Z,5.63
2022-11-11T07:26:27.890Z,5.60
2022-11-11T07:31:51.186Z,2.73
2022-11-11T07:37:14.123Z,3.17
2022-11-11T07:42:37.074Z,3.90
2022-11-11T07:47:58.490Z,5.73
2022-11-11T07:53:21.531Z,3.43
2022-11-11T07:58:43.260Z,1.70
2022-11-11T08:04:04.825Z,2.77
2022-11-11T08:09:27.742Z,4.87
2022-11-11T08:14:48.950Z,3.87
2022-11-11T08:20:11.774Z,3.27
2022-11-11T08:25:34.318Z,3.10
2022-11-11T08:30:59.050Z,2.53
2022-11-11T08:36:25.396Z,2.07
2022-11-11T08:41:48.539Z,8.77
2022-11-11T08:47:10.006Z,2.47
2022-11-11T08:52:31.391Z,2.07
2022-11-11T08:58:00.618Z,7.50
2022-11-11T09:03:22.507Z,2.07
2022-11-11T09:08:44.942Z,3.80
2022-11-11T09:14:07.632Z,1.17
2022-11-11T09:19:28.897Z,3.60
2022-11-11T09:24:50.085Z,3.27
2022-11-11T09:30:13.743Z,1.90
2022-11-11T09:35:35.679Z,4.30
2022-11-11T09:41:07.711Z,1.53
2022-11-11T09:46:36.699Z,2.33
2022-11-11T09:52:03.625Z,2.50
2022-11-11T09:57:36.299Z,2.73
2022-11-11T10:03:07.391Z,2.13
2022-11-11T10:08:30.983Z,2.97
2022-11-11T10:13:56.984Z,2.70
2022-11-11T10:19:30.744Z,4.80
2022-11-11T10:25:04.551Z,3.33
2022-11-11T10:30:31.871Z,2.97
2022-11-11T10:35:57.724Z,2.10
2022-11-11T10:41:22.777Z,1.47
2022-11-11T10:46:54.592Z,3.90
2022-11-11T10:52:23.927Z,2.23
2022-11-11T10:57:51.541Z,2.30
2022-11-11T11:03:17.560Z,3.20
2022-11-11T11:08:46.319Z,2.73
2022-11-11T11:14:11.845Z,4.80
2022-11-11T11:19:33.540Z,2.87
2022-11-11T11:25:11.369Z,4.00
2022-11-11T11:30:33.111Z,2.10
2022-11-11T11:35:54.443Z,1.60
2022-11-11T11:41:17.738Z,2.77
2022-11-11T11:46:40.431Z,4.00
2022-11-11T11:52:07.707Z,1.60
2022-11-11T11:57:42.967Z,2.10
2022-11-11T12:03:25.831Z,2.10
2022-11-11T12:08:59.280Z,2.40
2022-11-11T12:14:54.844Z,1.27
2022-11-11T12:20:22.073Z,2.87
2022-11-11T12:26:02.704Z,4.90
2022-11-11T12:31:35.078Z,4.50
2022-11-11T12:37:02.074Z,1.10
2022-11-11T12:42:37.123Z,1.80
2022-11-11T12:48:16.547Z,2.23
2022-11-11T12:53:48.533Z,5.90
2022-11-11T12:59:20.505Z,3.17
2022-11-11T13:04:58.279Z,2.60
2022-11-11T13:10:29.597Z,2.83
2022-11-11T13:15:53.301Z,2.13
2022-11-11T13:21:19.267Z,2.27
2022-11-11T13:26:45.000Z,4.00
2022-11-11T13:32:10.873Z,3.33
2022-11-11T13:37:34.591Z,4.10
2022-11-11T13:42:56.328Z,10.07
2022-11-11T13:48:22.932Z,10.20
2022-11-11T13:53:49.124Z,7.90
2022-11-11T13:59:22.685Z,10.13
2022-11-11T14:05:17.612Z,12.00
2022-11-11T14:10:56.667Z,13.13
2022-11-11T14:17:02.106Z,11.20
2022-11-11T14:22:32.428Z,9.40
2022-11-11T14:27:55.197Z,8.80
2022-11-11T14:33:31.344Z,12.07
2022-11-11T14:39:05.283Z,12.43
2022-11-11T14:44:42.525Z,15.77
2022-11-11T14:50:25.740Z,18.50
2022-11-11T14:55:55.363Z,16.70
2022-11-11T15:01:20.971Z,12.70
2022-11-11T15:06:47.151Z,8.03
2022-11-11T15:12:28.863Z,7.60
2022-11-11T15:18:02.924Z,15.63
2022-11-11T15:23:34.427Z,12.00
2022-11-11T15:29:11.720Z,11.40
2022-11-11T15:34:41.748Z,14.70
2022-11-11T15:40:05.181Z,7.03
2022-11-11T15:45:34.755Z,5.37
2022-11-11T15:50:58.470Z,7.63
2022-11-11T15:56:30.424Z,7.63
2022-11-11T16:01:53.314Z,4.63
2022-11-11T16:07:21.526Z,6.10
2022-11-11T16:12:47.420Z,7.87
2022-11-11T16:18:16.273Z,10.93
2022-11-11T16:23:40.003Z,13.50
2022-11-11T16:29:01.481Z,9.33
2022-11-11T16:34:35.656Z,13.03
2022-11-11T16:40:36.561Z,19.20
2022-11-11T16:46:03.874Z,21.53
2022-11-11T16:51:38.261Z,13.00
2022-11-11T16:57:01.523Z,19.60
2022-11-11T17:02:26.102Z,15.97
2022-11-11T17:07:47.515Z,21.00
2022-11-11T17:13:10.425Z,31.27
2022-11-11T17:18:35.319Z,22.63
2022-11-11T17:23:56.847Z,31.77
2022-11-11T17:29:19.762Z,28.03
2022-11-11T17:34:41.220Z,36.77
2022-11-11T17:40:02.664Z,28.40
2022-11-11T17:45:25.208Z,19.63
2022-11-11T17:50:46.511Z,26.90
2022-11-11T17:56:10.403Z,24.60
2022-11-11T18:01:33.058Z,24.50
2022-11-11T18:06:54.977Z,27.33
2022-11-11T18:12:17.055Z,36.50
2022-11-11T18:17:39.619Z,40.20
2022-11-11T18:23:01.202Z,37.77
2022-11-11T18:28:22.435Z,56.50
2022-11-11T18:33:45.921Z,75.57
2022-11-11T18:39:07.157Z,71.63
2022-11-11T18:44:28.309Z,55.20
2022-11-11T18:49:51.330Z,46.23
2022-11-11T18:55:13.014Z,33.87
2022-11-11T19:00:34.339Z,33.70
2022-11-11T19:06:00.777Z,29.93
2022-11-11T19:11:22.172Z,27.83
2022-11-11T19:16:44.052Z,29.90
2022-11-11T19:22:07.032Z,26.50
2022-11-11T19:27:28.424Z,23.27
2022-11-11T19:32:49.627Z,24.80
2022-11-11T19:38:12.097Z,26.63
2022-11-11T19:43:34.207Z,21.70
2022-11-11T19:48:57.125Z,21.30
2022-11-11T19:54:21.108Z,22.60
2022-11-11T19:59:42.480Z,24.40
2022-11-11T20:05:04.814Z,24.03
2022-11-11T20:10:27.845Z,22.97
2022-11-11T20:15:49.661Z,25.70
2022-11-11T20:21:12.170Z,29.23
2022-11-11T20:26:34.751Z,24.33
2022-11-11T20:31:56.503Z,25.87
2022-11-11T20:37:18.247Z,26.20
2022-11-11T20:42:41.188Z,28.70
2022-11-11T20:48:02.928Z,22.63
2022-11-11T20:53:24.478Z,26.90
2022-11-11T20:58:48.643Z,18.90
2022-11-11T21:04:10.377Z,25.97
2022-11-11T21:09:32.054Z,113.97
2022-11-11T21:14:54.788Z,119.97
2022-11-11T21:20:17.640Z,58.33
2022-11-11T21:25:39.089Z,47.63
2022-11-11T21:31:02.731Z,31.63
2022-11-11T21:36:26.413Z,27.47
2022-11-11T21:41:47.757Z,24.10
2022-11-11T21:47:11.594Z,22.43
2022-11-11T21:52:32.863Z,26.20
2022-11-11T21:57:54.151Z,27.33
2022-11-11T22:03:16.698Z,24.37
2022-11-11T22:08:39.639Z,19.07
2022-11-11T22:14:02.653Z,23.33
2022-11-11T22:19:25.323Z,20.43
2022-11-11T22:24:46.632Z,19.37
2022-11-11T22:30:09.098Z,20.10
2022-11-11T22:35:33.774Z,20.30
2022-11-11T22:40:55.468Z,18.80
2022-11-11T22:46:19.311Z,19.80
2022-11-11T22:51:44.286Z,19.60
2022-11-11T22:57:05.583Z,20.70
2022-11-11T23:02:28.024Z,18.67
2022-11-11T23:07:51.120Z,22.43
2022-11-11T23:13:12.413Z,16.33
2022-11-11T23:18:33.815Z,17.37
2022-11-11T23:23:57.551Z,16.67
2022-11-11T23:29:18.890Z,16.70
2022-11-11T23:34:40.272Z,13.40
2022-11-11T23:40:03.027Z,13.43
2022-11-11T23:45:24.607Z,13.07
2022-11-11T23:50:46.476Z,11.33
2022-11-11T23:56:09.514Z,12.63
